Branch, Canada
Current Conditions -  °F | °C
As of 5:27 AM on Saturday 29 Nov 2014 (Local Time) from CYYT Reporting Station
Light Snow Light Snow  
Wind Chill: 18°   Ceiling: 500
Heat Index: 28°   Visibility: 1.5mi
Dew Point: 28°   Wind: 12mph
Humidity: 100%   Direction: 360°N
Pressure: 29.7"   Gusts: NA
Location:  46.88°N, 53.97°W
Report Text: CYYT 290827Z 36010KT 1 1/2SM -SN OVC005 M02/M02 A2970 RMK SF8 SLP065
Loading
Personal Weather Stations






























Interactive Weather Map New forecast layout! Learn more

10-Day Weather Forecast

Advertisements
Track Severe Weather on mobile